sensor_id;sensor_type;location;lat;lon;timestamp;temperature;humidity
62339;DHT22;48368;53.406;6.214;2023-04-24T00:01:43;10.70;99.90
62339;DHT22;48368;53.406;6.214;2023-04-24T00:04:09;10.70;99.90
62339;DHT22;48368;53.406;6.214;2023-04-24T00:06:37;10.70;99.90
62339;DHT22;48368;53.406;6.214;2023-04-24T00:09:03;10.80;99.90
62339;DHT22;48368;53.406;6.214;2023-04-24T00:11:29;10.70;99.90
62339;DHT22;48368;53.406;6.214;2023-04-24T00:13:56;10.70;99.90
62339;DHT22;48368;53.406;6.214;2023-04-24T00:16:22;10.70;99.90
62339;DHT22;48368;53.406;6.214;2023-04-24T00:18:48;10.70;99.90
62339;DHT22;48368;53.406;6.214;2023-04-24T00:21:15;10.60;99.90
62339;DHT22;48368;53.406;6.214;2023-04-24T00:23:43;10.70;99.90
62339;DHT22;48368;53.406;6.214;2023-04-24T00:26:09;10.70;99.90
62339;DHT22;48368;53.406;6.214;2023-04-24T00:28:35;10.70;99.90
62339;DHT22;48368;53.406;6.214;2023-04-24T00:31:00;10.80;99.90
62339;DHT22;48368;53.406;6.214;2023-04-24T00:33:26;10.70;99.90
62339;DHT22;48368;53.406;6.214;2023-04-24T00:35:52;10.70;99.90
62339;DHT22;48368;53.406;6.214;2023-04-24T00:38:18;10.70;99.90
62339;DHT22;48368;53.406;6.214;2023-04-24T00:40:44;10.70;99.90
62339;DHT22;48368;53.406;6.214;2023-04-24T00:43:10;10.70;99.90
62339;DHT22;48368;53.406;6.214;2023-04-24T00:45:36;10.70;99.90
62339;DHT22;48368;53.406;6.214;2023-04-24T00:48:02;10.60;99.90
62339;DHT22;48368;53.406;6.214;2023-04-24T00:50:28;10.70;99.90
62339;DHT22;48368;53.406;6.214;2023-04-24T00:52:54;10.70;99.90
62339;DHT22;48368;53.406;6.214;2023-04-24T00:55:20;10.70;99.90
62339;DHT22;48368;53.406;6.214;2023-04-24T00:57:46;10.70;99.90
62339;DHT22;48368;53.406;6.214;2023-04-24T01:00:14;10.70;99.90
62339;DHT22;48368;53.406;6.214;2023-04-24T01:02:41;10.70;99.90
62339;DHT22;48368;53.406;6.214;2023-04-24T01:05:11;10.70;99.90
62339;DHT22;48368;53.406;6.214;2023-04-24T01:07:38;10.70;99.90
62339;DHT22;48368;53.406;6.214;2023-04-24T01:10:05;10.70;99.90
62339;DHT22;48368;53.406;6.214;2023-04-24T01:12:31;10.60;99.90
62339;DHT22;48368;53.406;6.214;2023-04-24T01:14:57;10.70;99.90
62339;DHT22;48368;53.406;6.214;2023-04-24T01:17:23;10.70;99.90
62339;DHT22;48368;53.406;6.214;2023-04-24T01:19:49;10.60;99.90
62339;DHT22;48368;53.406;6.214;2023-04-24T01:22:15;10.70;99.90
62339;DHT22;48368;53.406;6.214;2023-04-24T01:24:42;10.60;99.90
62339;DHT22;48368;53.406;6.214;2023-04-24T01:27:09;10.60;99.90
62339;DHT22;48368;53.406;6.214;2023-04-24T01:29:36;10.60;99.90
62339;DHT22;48368;53.406;6.214;2023-04-24T01:32:03;10.60;99.90
62339;DHT22;48368;53.406;6.214;2023-04-24T01:34:30;10.60;99.90
62339;DHT22;48368;53.406;6.214;2023-04-24T01:36:56;10.60;99.90
62339;DHT22;48368;53.406;6.214;2023-04-24T01:39:22;10.60;99.90
62339;DHT22;48368;53.406;6.214;2023-04-24T01:41:54;10.60;99.90
62339;DHT22;48368;53.406;6.214;2023-04-24T01:44:21;10.60;99.90
62339;DHT22;48368;53.406;6.214;2023-04-24T01:46:47;10.60;99.90
62339;DHT22;48368;53.406;6.214;2023-04-24T01:49:13;10.70;99.90
62339;DHT22;48368;53.406;6.214;2023-04-24T01:51:38;10.60;99.90
62339;DHT22;48368;53.406;6.214;2023-04-24T01:54:04;10.60;99.90
62339;DHT22;48368;53.406;6.214;2023-04-24T01:56:33;10.60;99.90
62339;DHT22;48368;53.406;6.214;2023-04-24T01:58:59;10.50;99.90
62339;DHT22;48368;53.406;6.214;2023-04-24T02:01:25;10.50;99.90
62339;DHT22;48368;53.406;6.214;2023-04-24T02:03:51;10.60;99.90
62339;DHT22;48368;53.406;6.214;2023-04-24T02:06:17;10.50;99.90
62339;DHT22;48368;53.406;6.214;2023-04-24T02:08:42;10.40;99.90
62339;DHT22;48368;53.406;6.214;2023-04-24T02:11:11;10.30;99.90
62339;DHT22;48368;53.406;6.214;2023-04-24T02:13:36;10.30;99.90
62339;DHT22;48368;53.406;6.214;2023-04-24T02:16:02;10.40;99.90
62339;DHT22;48368;53.406;6.214;2023-04-24T02:18:28;10.30;99.90
62339;DHT22;48368;53.406;6.214;2023-04-24T02:20:53;10.30;99.90
62339;DHT22;48368;53.406;6.214;2023-04-24T02:23:19;10.20;99.90
62339;DHT22;48368;53.406;6.214;2023-04-24T02:25:45;10.30;99.90
62339;DHT22;48368;53.406;6.214;2023-04-24T02:28:11;10.20;99.90
62339;DHT22;48368;53.406;6.214;2023-04-24T02:30:37;10.20;99.90
62339;DHT22;48368;53.406;6.214;2023-04-24T02:33:02;10.20;99.90
62339;DHT22;48368;53.406;6.214;2023-04-24T02:35:28;10.20;99.90
62339;DHT22;48368;53.406;6.214;2023-04-24T02:37:54;10.20;99.90
62339;DHT22;48368;53.406;6.214;2023-04-24T02:40:19;10.20;99.90
62339;DHT22;48368;53.406;6.214;2023-04-24T02:42:45;10.20;99.90
62339;DHT22;48368;53.406;6.214;2023-04-24T02:45:11;10.20;99.90
62339;DHT22;48368;53.406;6.214;2023-04-24T02:47:36;10.20;99.90
62339;DHT22;48368;53.406;6.214;2023-04-24T02:50:03;10.20;99.90
62339;DHT22;48368;53.406;6.214;2023-04-24T02:52:28;10.20;99.90
62339;DHT22;48368;53.406;6.214;2023-04-24T02:54:54;10.20;99.90
62339;DHT22;48368;53.406;6.214;2023-04-24T02:57:20;10.20;99.90
62339;DHT22;48368;53.406;6.214;2023-04-24T02:59:45;10.20;99.90
62339;DHT22;48368;53.406;6.214;2023-04-24T03:02:11;10.20;99.90
62339;DHT22;48368;53.406;6.214;2023-04-24T03:04:36;10.20;99.90
62339;DHT22;48368;53.406;6.214;2023-04-24T03:07:02;10.20;99.90
62339;DHT22;48368;53.406;6.214;2023-04-24T03:09:27;10.20;99.90
62339;DHT22;48368;53.406;6.214;2023-04-24T03:11:53;10.30;99.90
62339;DHT22;48368;53.406;6.214;2023-04-24T03:14:19;10.20;99.90
62339;DHT22;48368;53.406;6.214;2023-04-24T03:16:44;10.30;99.90
62339;DHT22;48368;53.406;6.214;2023-04-24T03:19:10;10.30;99.90
62339;DHT22;48368;53.406;6.214;2023-04-24T03:21:36;10.40;99.90
62339;DHT22;48368;53.406;6.214;2023-04-24T03:24:07;10.40;99.90
62339;DHT22;48368;53.406;6.214;2023-04-24T03:26:35;10.30;99.90
62339;DHT22;48368;53.406;6.214;2023-04-24T03:29:01;10.40;99.90
62339;DHT22;48368;53.406;6.214;2023-04-24T03:31:26;10.40;99.90
62339;DHT22;48368;53.406;6.214;2023-04-24T03:33:52;10.40;99.90
62339;DHT22;48368;53.406;6.214;2023-04-24T03:36:18;10.50;99.90
62339;DHT22;48368;53.406;6.214;2023-04-24T03:38:44;10.40;99.90
62339;DHT22;48368;53.406;6.214;2023-04-24T03:41:10;10.40;99.90
62339;DHT22;48368;53.406;6.214;2023-04-24T03:43:38;10.40;99.90
62339;DHT22;48368;53.406;6.214;2023-04-24T03:46:04;10.40;99.90
62339;DHT22;48368;53.406;6.214;2023-04-24T03:48:30;10.40;99.90
62339;DHT22;48368;53.406;6.214;2023-04-24T03:50:56;10.40;99.90
62339;DHT22;48368;53.406;6.214;2023-04-24T03:53:21;10.40;99.90
62339;DHT22;48368;53.406;6.214;2023-04-24T03:55:47;10.40;99.90
62339;DHT22;48368;53.406;6.214;2023-04-24T03:58:13;10.40;99.90
62339;DHT22;48368;53.406;6.214;2023-04-24T04:00:41;10.40;99.90
62339;DHT22;48368;53.406;6.214;2023-04-24T04:03:06;10.40;99.90
62339;DHT22;48368;53.406;6.214;2023-04-24T04:05:32;10.40;99.90
62339;DHT22;48368;53.406;6.214;2023-04-24T04:07:58;10.30;99.90
62339;DHT22;48368;53.406;6.214;2023-04-24T04:10:23;10.30;99.90
62339;DHT22;48368;53.406;6.214;2023-04-24T04:12:49;10.30;99.90
62339;DHT22;48368;53.406;6.214;2023-04-24T04:15:15;10.40;99.90
62339;DHT22;48368;53.406;6.214;2023-04-24T04:17:40;10.30;99.90
62339;DHT22;48368;53.406;6.214;2023-04-24T04:20:07;10.30;99.90
62339;DHT22;48368;53.406;6.214;2023-04-24T04:22:36;10.30;99.90
62339;DHT22;48368;53.406;6.214;2023-04-24T04:25:02;10.30;99.90
62339;DHT22;48368;53.406;6.214;2023-04-24T04:27:28;10.30;99.90
62339;DHT22;48368;53.406;6.214;2023-04-24T04:30:01;10.30;99.90
62339;DHT22;48368;53.406;6.214;2023-04-24T04:32:31;10.30;99.90
62339;DHT22;48368;53.406;6.214;2023-04-24T04:34:59;10.30;99.90
62339;DHT22;48368;53.406;6.214;2023-04-24T04:37:29;10.30;99.90
62339;DHT22;48368;53.406;6.214;2023-04-24T04:39:54;10.20;99.90
62339;DHT22;48368;53.406;6.214;2023-04-24T04:42:20;10.30;99.90
62339;DHT22;48368;53.406;6.214;2023-04-24T04:44:46;10.30;99.90
62339;DHT22;48368;53.406;6.214;2023-04-24T04:47:12;10.20;99.90
62339;DHT22;48368;53.406;6.214;2023-04-24T04:49:38;10.20;99.90
62339;DHT22;48368;53.406;6.214;2023-04-24T04:52:04;10.30;99.90
62339;DHT22;48368;53.406;6.214;2023-04-24T04:54:30;10.30;99.90
62339;DHT22;48368;53.406;6.214;2023-04-24T04:56:56;10.30;99.90
62339;DHT22;48368;53.406;6.214;2023-04-24T04:59:22;10.30;99.90
62339;DHT22;48368;53.406;6.214;2023-04-24T05:01:48;10.20;99.90
62339;DHT22;48368;53.406;6.214;2023-04-24T05:04:14;10.30;99.90
62339;DHT22;48368;53.406;6.214;2023-04-24T05:06:39;10.20;99.90
62339;DHT22;48368;53.406;6.214;2023-04-24T05:09:05;10.10;99.90
62339;DHT22;48368;53.406;6.214;2023-04-24T05:11:32;10.20;99.90
62339;DHT22;48368;53.406;6.214;2023-04-24T05:13:58;10.20;99.90
62339;DHT22;48368;53.406;6.214;2023-04-24T05:16:24;10.10;99.90
62339;DHT22;48368;53.406;6.214;2023-04-24T05:18:49;10.10;99.90
62339;DHT22;48368;53.406;6.214;2023-04-24T05:21:15;10.10;99.90
62339;DHT22;48368;53.406;6.214;2023-04-24T05:23:47;10.10;99.90
62339;DHT22;48368;53.406;6.214;2023-04-24T05:26:13;10.10;99.90
62339;DHT22;48368;53.406;6.214;2023-04-24T05:28:40;10.10;99.90
62339;DHT22;48368;53.406;6.214;2023-04-24T05:31:06;10.10;99.90
62339;DHT22;48368;53.406;6.214;2023-04-24T05:33:32;10.10;99.90
62339;DHT22;48368;53.406;6.214;2023-04-24T05:35:57;10.20;99.90
62339;DHT22;48368;53.406;6.214;2023-04-24T05:38:23;10.20;99.90
62339;DHT22;48368;53.406;6.214;2023-04-24T05:40:48;10.20;99.90
62339;DHT22;48368;53.406;6.214;2023-04-24T05:43:14;10.10;99.90
62339;DHT22;48368;53.406;6.214;2023-04-24T05:45:40;10.10;99.90
62339;DHT22;48368;53.406;6.214;2023-04-24T05:48:05;10.10;99.90
62339;DHT22;48368;53.406;6.214;2023-04-24T05:50:31;10.20;99.90
62339;DHT22;48368;53.406;6.214;2023-04-24T05:52:57;10.20;99.90
62339;DHT22;48368;53.406;6.214;2023-04-24T05:55:27;10.20;99.90
62339;DHT22;48368;53.406;6.214;2023-04-24T05:57:53;10.20;99.90
62339;DHT22;48368;53.406;6.214;2023-04-24T06:00:19;10.30;99.90
62339;DHT22;48368;53.406;6.214;2023-04-24T06:02:46;10.20;99.90
62339;DHT22;48368;53.406;6.214;2023-04-24T06:05:11;10.30;99.90
62339;DHT22;48368;53.406;6.214;2023-04-24T06:07:37;10.30;99.90
62339;DHT22;48368;53.406;6.214;2023-04-24T06:10:03;10.30;99.90
62339;DHT22;48368;53.406;6.214;2023-04-24T06:12:29;10.30;99.90
62339;DHT22;48368;53.406;6.214;2023-04-24T06:14:55;10.30;99.90
62339;DHT22;48368;53.406;6.214;2023-04-24T06:17:23;10.40;99.90
62339;DHT22;48368;53.406;6.214;2023-04-24T06:19:48;10.30;99.90
62339;DHT22;48368;53.406;6.214;2023-04-24T06:22:20;10.30;99.90
62339;DHT22;48368;53.406;6.214;2023-04-24T06:24:46;10.30;99.90
62339;DHT22;48368;53.406;6.214;2023-04-24T06:27:14;10.30;99.90
62339;DHT22;48368;53.406;6.214;2023-04-24T06:29:39;10.30;99.90
62339;DHT22;48368;53.406;6.214;2023-04-24T06:32:05;10.30;99.90
62339;DHT22;48368;53.406;6.214;2023-04-24T06:34:31;10.30;99.90
62339;DHT22;48368;53.406;6.214;2023-04-24T06:36:58;10.20;99.90
62339;DHT22;48368;53.406;6.214;2023-04-24T06:39:24;10.30;99.90
62339;DHT22;48368;53.406;6.214;2023-04-24T06:41:49;10.10;99.90
62339;DHT22;48368;53.406;6.214;2023-04-24T06:44:15;10.20;99.90
62339;DHT22;48368;53.406;6.214;2023-04-24T06:46:42;10.10;99.90
62339;DHT22;48368;53.406;6.214;2023-04-24T06:49:07;10.20;99.90
62339;DHT22;48368;53.406;6.214;2023-04-24T06:51:33;10.10;99.90
62339;DHT22;48368;53.406;6.214;2023-04-24T06:53:59;10.00;99.90
62339;DHT22;48368;53.406;6.214;2023-04-24T06:56:25;9.90;99.90
62339;DHT22;48368;53.406;6.214;2023-04-24T06:58:51;10.10;99.90
62339;DHT22;48368;53.406;6.214;2023-04-24T07:01:17;10.10;99.90
62339;DHT22;48368;53.406;6.214;2023-04-24T07:03:43;10.10;99.90
62339;DHT22;48368;53.406;6.214;2023-04-24T07:06:09;10.10;99.90
62339;DHT22;48368;53.406;6.214;2023-04-24T07:08:36;10.10;99.90
62339;DHT22;48368;53.406;6.214;2023-04-24T07:11:02;10.00;99.90
62339;DHT22;48368;53.406;6.214;2023-04-24T07:13:28;10.00;99.90
62339;DHT22;48368;53.406;6.214;2023-04-24T07:15:54;9.90;99.90
62339;DHT22;48368;53.406;6.214;2023-04-24T07:18:21;9.90;99.90
62339;DHT22;48368;53.406;6.214;2023-04-24T07:20:47;9.80;99.90
62339;DHT22;48368;53.406;6.214;2023-04-24T07:23:19;9.80;99.90
62339;DHT22;48368;53.406;6.214;2023-04-24T07:25:44;9.80;99.90
62339;DHT22;48368;53.406;6.214;2023-04-24T07:28:12;9.90;99.90
62339;DHT22;48368;53.406;6.214;2023-04-24T07:30:38;9.90;99.90
62339;DHT22;48368;53.406;6.214;2023-04-24T07:33:05;9.90;99.90
62339;DHT22;48368;53.406;6.214;2023-04-24T07:35:33;9.80;99.90
62339;DHT22;48368;53.406;6.214;2023-04-24T07:37:58;9.80;99.90
62339;DHT22;48368;53.406;6.214;2023-04-24T07:40:24;9.80;99.90
62339;DHT22;48368;53.406;6.214;2023-04-24T07:42:49;9.80;99.90
62339;DHT22;48368;53.406;6.214;2023-04-24T07:45:15;9.80;99.90
62339;DHT22;48368;53.406;6.214;2023-04-24T07:47:41;9.80;99.90
62339;DHT22;48368;53.406;6.214;2023-04-24T07:50:09;9.70;99.90
62339;DHT22;48368;53.406;6.214;2023-04-24T07:52:35;9.70;99.90
62339;DHT22;48368;53.406;6.214;2023-04-24T07:55:01;9.70;99.90
62339;DHT22;48368;53.406;6.214;2023-04-24T07:57:28;9.80;99.90
62339;DHT22;48368;53.406;6.214;2023-04-24T07:59:54;9.70;99.90
62339;DHT22;48368;53.406;6.214;2023-04-24T08:02:19;9.70;99.90
62339;DHT22;48368;53.406;6.214;2023-04-24T08:04:47;9.70;99.90
62339;DHT22;48368;53.406;6.214;2023-04-24T08:07:12;9.70;99.90
62339;DHT22;48368;53.406;6.214;2023-04-24T08:09:38;9.70;99.90
62339;DHT22;48368;53.406;6.214;2023-04-24T08:12:04;9.60;99.90
62339;DHT22;48368;53.406;6.214;2023-04-24T08:14:30;9.60;99.90
62339;DHT22;48368;53.406;6.214;2023-04-24T08:16:55;9.50;99.90
62339;DHT22;48368;53.406;6.214;2023-04-24T08:19:21;9.60;99.90
62339;DHT22;48368;53.406;6.214;2023-04-24T08:21:47;9.60;99.90
62339;DHT22;48368;53.406;6.214;2023-04-24T08:24:15;9.60;99.90
62339;DHT22;48368;53.406;6.214;2023-04-24T08:26:41;9.50;99.90
62339;DHT22;48368;53.406;6.214;2023-04-24T08:29:06;9.50;99.90
62339;DHT22;48368;53.406;6.214;2023-04-24T08:31:32;9.50;99.90
62339;DHT22;48368;53.406;6.214;2023-04-24T08:33:58;9.60;99.90
62339;DHT22;48368;53.406;6.214;2023-04-24T08:36:28;9.60;99.90
62339;DHT22;48368;53.406;6.214;2023-04-24T08:38:53;9.60;99.90
62339;DHT22;48368;53.406;6.214;2023-04-24T08:41:19;9.80;99.90
62339;DHT22;48368;53.406;6.214;2023-04-24T08:43:48;9.80;99.90
62339;DHT22;48368;53.406;6.214;2023-04-24T08:46:15;9.80;99.90
62339;DHT22;48368;53.406;6.214;2023-04-24T08:48:42;9.80;99.90
62339;DHT22;48368;53.406;6.214;2023-04-24T08:51:08;9.80;99.90
62339;DHT22;48368;53.406;6.214;2023-04-24T08:53:35;9.80;99.90
62339;DHT22;48368;53.406;6.214;2023-04-24T08:56:01;9.80;99.90
62339;DHT22;48368;53.406;6.214;2023-04-24T08:58:28;9.70;99.90
62339;DHT22;48368;53.406;6.214;2023-04-24T09:00:57;9.80;99.90
62339;DHT22;48368;53.406;6.214;2023-04-24T09:03:23;9.80;99.90
62339;DHT22;48368;53.406;6.214;2023-04-24T09:05:49;9.80;99.90
62339;DHT22;48368;53.406;6.214;2023-04-24T09:08:19;9.80;99.90
62339;DHT22;48368;53.406;6.214;2023-04-24T09:10:45;9.80;99.90
62339;DHT22;48368;53.406;6.214;2023-04-24T09:13:10;9.70;99.90
62339;DHT22;48368;53.406;6.214;2023-04-24T09:15:38;9.70;99.90
62339;DHT22;48368;53.406;6.214;2023-04-24T09:18:04;9.80;99.90
62339;DHT22;48368;53.406;6.214;2023-04-24T09:20:31;9.80;99.90
62339;DHT22;48368;53.406;6.214;2023-04-24T09:22:58;9.80;99.90
62339;DHT22;48368;53.406;6.214;2023-04-24T09:25:34;9.90;99.90
62339;DHT22;48368;53.406;6.214;2023-04-24T09:28:04;10.00;99.90
62339;DHT22;48368;53.406;6.214;2023-04-24T09:30:32;10.10;99.90
62339;DHT22;48368;53.406;6.214;2023-04-24T09:35:36;10.40;99.90
62339;DHT22;48368;53.406;6.214;2023-04-24T09:38:01;10.40;99.90
62339;DHT22;48368;53.406;6.214;2023-04-24T09:40:27;10.40;99.90
62339;DHT22;48368;53.406;6.214;2023-04-24T09:42:55;10.50;99.90
62339;DHT22;48368;53.406;6.214;2023-04-24T09:45:22;10.50;99.90
62339;DHT22;48368;53.406;6.214;2023-04-24T09:47:53;10.50;99.90
62339;DHT22;48368;53.406;6.214;2023-04-24T09:50:19;10.50;99.90
62339;DHT22;48368;53.406;6.214;2023-04-24T09:52:47;10.60;99.90
62339;DHT22;48368;53.406;6.214;2023-04-24T09:55:21;10.60;99.90
62339;DHT22;48368;53.406;6.214;2023-04-24T09:58:00;10.70;99.90
62339;DHT22;48368;53.406;6.214;2023-04-24T10:00:27;10.70;99.90
62339;DHT22;48368;53.406;6.214;2023-04-24T10:03:00;10.90;99.90
62339;DHT22;48368;53.406;6.214;2023-04-24T10:05:33;10.90;99.90
62339;DHT22;48368;53.406;6.214;2023-04-24T10:08:06;11.00;99.90
62339;DHT22;48368;53.406;6.214;2023-04-24T10:10:33;11.00;99.90
62339;DHT22;48368;53.406;6.214;2023-04-24T10:13:00;11.10;99.90
62339;DHT22;48368;53.406;6.214;2023-04-24T10:15:26;11.10;99.90
62339;DHT22;48368;53.406;6.214;2023-04-24T10:17:52;10.90;99.90
62339;DHT22;48368;53.406;6.214;2023-04-24T10:20:23;10.90;99.90
62339;DHT22;48368;53.406;6.214;2023-04-24T10:22:51;10.90;99.90
62339;DHT22;48368;53.406;6.214;2023-04-24T10:25:19;10.90;99.90
62339;DHT22;48368;53.406;6.214;2023-04-24T10:27:46;10.80;99.90
62339;DHT22;48368;53.406;6.214;2023-04-24T10:30:13;10.80;99.90
62339;DHT22;48368;53.406;6.214;2023-04-24T10:32:38;10.80;99.90
62339;DHT22;48368;53.406;6.214;2023-04-24T10:35:06;10.80;99.90
62339;DHT22;48368;53.406;6.214;2023-04-24T10:37:45;10.90;99.90
62339;DHT22;48368;53.406;6.214;2023-04-24T10:40:17;10.90;99.90
62339;DHT22;48368;53.406;6.214;2023-04-24T10:42:47;11.00;99.90
62339;DHT22;48368;53.406;6.214;2023-04-24T10:45:17;11.00;99.90
62339;DHT22;48368;53.406;6.214;2023-04-24T10:50:34;11.00;99.90
62339;DHT22;48368;53.406;6.214;2023-04-24T10:53:11;10.90;99.90
62339;DHT22;48368;53.406;6.214;2023-04-24T10:55:51;10.90;99.90
62339;DHT22;48368;53.406;6.214;2023-04-24T10:58:22;10.90;99.90
62339;DHT22;48368;53.406;6.214;2023-04-24T11:00:56;10.80;99.90
62339;DHT22;48368;53.406;6.214;2023-04-24T11:06:06;10.90;99.90
62339;DHT22;48368;53.406;6.214;2023-04-24T11:08:45;10.90;99.90
62339;DHT22;48368;53.406;6.214;2023-04-24T11:11:16;10.80;99.90
62339;DHT22;48368;53.406;6.214;2023-04-24T11:16:28;10.80;99.90
62339;DHT22;48368;53.406;6.214;2023-04-24T11:21:58;10.80;99.90
62339;DHT22;48368;53.406;6.214;2023-04-24T11:24:30;10.80;99.90
62339;DHT22;48368;53.406;6.214;2023-04-24T11:29:46;10.70;99.90
62339;DHT22;48368;53.406;6.214;2023-04-24T11:34:41;10.70;99.90
62339;DHT22;48368;53.406;6.214;2023-04-24T11:37:10;10.60;99.90
62339;DHT22;48368;53.406;6.214;2023-04-24T11:39:36;10.70;99.90
62339;DHT22;48368;53.406;6.214;2023-04-24T11:42:03;10.60;99.90
62339;DHT22;48368;53.406;6.214;2023-04-24T11:44:31;10.60;99.90
62339;DHT22;48368;53.406;6.214;2023-04-24T11:46:58;10.60;99.90
62339;DHT22;48368;53.406;6.214;2023-04-24T11:49:24;10.50;99.90
62339;DHT22;48368;53.406;6.214;2023-04-24T11:51:49;10.50;99.90
62339;DHT22;48368;53.406;6.214;2023-04-24T11:54:15;10.40;99.90
62339;DHT22;48368;53.406;6.214;2023-04-24T11:56:46;10.50;99.90
62339;DHT22;48368;53.406;6.214;2023-04-24T11:59:12;10.40;99.90
62339;DHT22;48368;53.406;6.214;2023-04-24T12:01:47;10.50;99.90
62339;DHT22;48368;53.406;6.214;2023-04-24T12:04:14;10.50;99.90
62339;DHT22;48368;53.406;6.214;2023-04-24T12:06:40;10.50;99.90
62339;DHT22;48368;53.406;6.214;2023-04-24T12:09:23;10.50;99.90
62339;DHT22;48368;53.406;6.214;2023-04-24T12:11:55;10.40;99.90
62339;DHT22;48368;53.406;6.214;2023-04-24T12:14:22;10.30;99.90
62339;DHT22;48368;53.406;6.214;2023-04-24T12:16:49;10.20;99.90
62339;DHT22;48368;53.406;6.214;2023-04-24T12:19:22;10.20;99.90
62339;DHT22;48368;53.406;6.214;2023-04-24T12:24:26;10.10;99.90
62339;DHT22;48368;53.406;6.214;2023-04-24T12:26:52;10.20;99.90
62339;DHT22;48368;53.406;6.214;2023-04-24T12:29:24;10.20;99.90
62339;DHT22;48368;53.406;6.214;2023-04-24T12:31:51;10.20;99.90
62339;DHT22;48368;53.406;6.214;2023-04-24T12:34:21;10.30;99.90
62339;DHT22;48368;53.406;6.214;2023-04-24T12:36:47;10.30;99.90
62339;DHT22;48368;53.406;6.214;2023-04-24T12:39:17;10.20;99.90
62339;DHT22;48368;53.406;6.214;2023-04-24T12:41:56;10.20;99.90
62339;DHT22;48368;53.406;6.214;2023-04-24T12:44:33;10.20;99.90
62339;DHT22;48368;53.406;6.214;2023-04-24T12:47:00;10.30;99.90
62339;DHT22;48368;53.406;6.214;2023-04-24T12:49:27;10.20;99.90
62339;DHT22;48368;53.406;6.214;2023-04-24T12:51:53;10.30;99.90
62339;DHT22;48368;53.406;6.214;2023-04-24T12:54:19;10.20;99.90
62339;DHT22;48368;53.406;6.214;2023-04-24T12:56:45;10.10;99.90
62339;DHT22;48368;53.406;6.214;2023-04-24T12:59:10;9.90;99.90
62339;DHT22;48368;53.406;6.214;2023-04-24T13:01:36;9.90;99.90
62339;DHT22;48368;53.406;6.214;2023-04-24T13:04:02;9.90;99.90
62339;DHT22;48368;53.406;6.214;2023-04-24T13:06:27;10.00;99.90
62339;DHT22;48368;53.406;6.214;2023-04-24T13:08:53;10.10;99.90
62339;DHT22;48368;53.406;6.214;2023-04-24T13:11:20;10.10;99.90
62339;DHT22;48368;53.406;6.214;2023-04-24T13:13:47;10.20;99.90
62339;DHT22;48368;53.406;6.214;2023-04-24T13:16:13;10.40;99.90
62339;DHT22;48368;53.406;6.214;2023-04-24T13:18:38;10.60;99.90
62339;DHT22;48368;53.406;6.214;2023-04-24T13:21:04;10.70;99.90
62339;DHT22;48368;53.406;6.214;2023-04-24T13:23:30;10.70;99.90
62339;DHT22;48368;53.406;6.214;2023-04-24T13:25:56;10.70;99.90
62339;DHT22;48368;53.406;6.214;2023-04-24T13:28:25;10.60;99.90
62339;DHT22;48368;53.406;6.214;2023-04-24T13:30:51;10.70;99.90
62339;DHT22;48368;53.406;6.214;2023-04-24T13:33:16;10.60;99.90
62339;DHT22;48368;53.406;6.214;2023-04-24T13:35:42;10.40;99.90
62339;DHT22;48368;53.406;6.214;2023-04-24T13:38:08;10.20;99.90
62339;DHT22;48368;53.406;6.214;2023-04-24T13:40:33;10.10;99.90
62339;DHT22;48368;53.406;6.214;2023-04-24T13:42:59;10.00;99.90
62339;DHT22;48368;53.406;6.214;2023-04-24T13:45:26;9.90;99.90
62339;DHT22;48368;53.406;6.214;2023-04-24T13:47:52;10.00;99.90
62339;DHT22;48368;53.406;6.214;2023-04-24T13:50:19;9.90;99.90
62339;DHT22;48368;53.406;6.214;2023-04-24T13:52:45;9.90;99.90
62339;DHT22;48368;53.406;6.214;2023-04-24T13:55:11;9.90;99.90
62339;DHT22;48368;53.406;6.214;2023-04-24T13:57:37;9.80;99.90
62339;DHT22;48368;53.406;6.214;2023-04-24T14:00:03;9.70;99.90
62339;DHT22;48368;53.406;6.214;2023-04-24T14:02:29;9.80;99.90
62339;DHT22;48368;53.406;6.214;2023-04-24T14:04:55;9.80;99.90
62339;DHT22;48368;53.406;6.214;2023-04-24T14:07:21;9.80;99.90
62339;DHT22;48368;53.406;6.214;2023-04-24T14:09:47;9.80;99.90
62339;DHT22;48368;53.406;6.214;2023-04-24T14:12:13;9.60;99.90
62339;DHT22;48368;53.406;6.214;2023-04-24T14:14:39;9.70;99.90
62339;DHT22;48368;53.406;6.214;2023-04-24T14:17:05;9.60;99.90
62339;DHT22;48368;53.406;6.214;2023-04-24T14:19:31;9.60;99.90
62339;DHT22;48368;53.406;6.214;2023-04-24T14:21:57;9.50;99.90
62339;DHT22;48368;53.406;6.214;2023-04-24T14:24:24;9.50;99.90
62339;DHT22;48368;53.406;6.214;2023-04-24T14:26:50;9.50;99.90
62339;DHT22;48368;53.406;6.214;2023-04-24T14:29:16;9.40;99.90
62339;DHT22;48368;53.406;6.214;2023-04-24T14:31:42;9.40;99.90
62339;DHT22;48368;53.406;6.214;2023-04-24T14:34:09;9.50;99.90
62339;DHT22;48368;53.406;6.214;2023-04-24T14:36:34;9.40;99.90
62339;DHT22;48368;53.406;6.214;2023-04-24T14:39:00;9.40;99.90
62339;DHT22;48368;53.406;6.214;2023-04-24T14:41:30;9.50;99.90
62339;DHT22;48368;53.406;6.214;2023-04-24T14:43:56;9.50;99.90
62339;DHT22;48368;53.406;6.214;2023-04-24T14:46:22;9.50;99.90
62339;DHT22;48368;53.406;6.214;2023-04-24T14:48:48;9.50;99.90
62339;DHT22;48368;53.406;6.214;2023-04-24T14:51:13;9.50;99.90
62339;DHT22;48368;53.406;6.214;2023-04-24T14:53:39;9.50;99.90
62339;DHT22;48368;53.406;6.214;2023-04-24T14:56:05;9.50;99.90
62339;DHT22;48368;53.406;6.214;2023-04-24T14:58:30;9.50;99.90
62339;DHT22;48368;53.406;6.214;2023-04-24T15:00:56;9.50;99.90
62339;DHT22;48368;53.406;6.214;2023-04-24T15:03:22;9.60;99.90
62339;DHT22;48368;53.406;6.214;2023-04-24T15:05:48;9.70;99.90
62339;DHT22;48368;53.406;6.214;2023-04-24T15:08:14;9.70;99.90
62339;DHT22;48368;53.406;6.214;2023-04-24T15:10:40;9.60;99.90
62339;DHT22;48368;53.406;6.214;2023-04-24T15:13:06;9.60;99.90
62339;DHT22;48368;53.406;6.214;2023-04-24T15:15:31;9.60;99.90
62339;DHT22;48368;53.406;6.214;2023-04-24T15:17:57;9.60;99.90
62339;DHT22;48368;53.406;6.214;2023-04-24T15:20:22;9.50;99.90
62339;DHT22;48368;53.406;6.214;2023-04-24T15:22:49;9.40;99.90
62339;DHT22;48368;53.406;6.214;2023-04-24T15:25:17;9.50;99.90
62339;DHT22;48368;53.406;6.214;2023-04-24T15:27:47;9.50;99.90
62339;DHT22;48368;53.406;6.214;2023-04-24T15:30:13;9.50;99.90
62339;DHT22;48368;53.406;6.214;2023-04-24T15:32:39;9.50;99.90
62339;DHT22;48368;53.406;6.214;2023-04-24T15:35:06;9.50;99.90
62339;DHT22;48368;53.406;6.214;2023-04-24T15:37:32;9.50;99.90
62339;DHT22;48368;53.406;6.214;2023-04-24T15:39:58;9.50;99.90
62339;DHT22;48368;53.406;6.214;2023-04-24T15:42:25;9.60;99.90
62339;DHT22;48368;53.406;6.214;2023-04-24T15:44:51;9.60;99.90
62339;DHT22;48368;53.406;6.214;2023-04-24T15:47:17;9.70;99.90
62339;DHT22;48368;53.406;6.214;2023-04-24T15:49:42;9.80;99.90
62339;DHT22;48368;53.406;6.214;2023-04-24T15:52:08;9.70;99.90
62339;DHT22;48368;53.406;6.214;2023-04-24T15:54:35;9.70;99.90